Flight Track Log - Related Links

Times and Time Zones

All times are in EDT time to prevent confusion due to time zone crossing. See the N20WE flight status page for this flight to view local times or setup timezone preferences in your user account.

Time Position Orientation Groundspeed Altitude Reporting Facility
EDT Latitude Longitude Course Direction KTS MPH feet Rate Location/Type
Mon 04:00:03 PM 39.3017 -101.8261 254° West 151 174 9,600  Level Denver Center
Mon 04:01:17 PM 39.2892 -101.8839 254° West 157 181 10,300 838 Climbing Denver Center
Mon 04:02:19 PM 39.2706 -101.9644 253° West 179 206 11,500 1,161 Climbing Denver Center
Mon 04:03:21 PM 39.2519 -102.0342 251° West 183 211 12,700 882 Climbing Denver Center
Mon 04:04:35 PM 39.2358 -102.0894 249° West 175 201 13,500 788 Climbing Denver Center
Mon 04:05:38 PM 39.2136 -102.1736 251° West 194 223 14,500 912 Climbing Denver Center
Mon 04:06:40 PM 39.1978 -102.2369 252° West 194 223 15,400 919 Climbing Denver Center
Mon 04:07:42 PM 39.1778 -102.3100 251° West 195 224 16,400 871 Climbing Denver Center
Mon 04:08:44 PM 39.1617 -102.3731 252° West 195 224 17,200 774 Climbing Denver Center
Mon 04:09:46 PM 39.1433 -102.4436 251° West 188 216 18,000 774 Climbing Denver Center
Mon 04:10:48 PM 39.1267 -102.5031 250° West 184 212 18,800 823 Climbing Denver Center
Mon 04:11:50 PM 39.1103 -102.5700 253° West 176 203 19,700 629 Climbing Denver Center
Mon 04:12:52 PM 39.0989 -102.6147 252° West 174 200 20,100 145 Climbing Denver Center
Mon 04:13:54 PM 39.0756 -102.7064 252° West 208 239 20,000 -48 Descending Denver Center
Mon 04:14:56 PM 39.0581 -102.7772 252° West 220 253 20,000  Level Denver Center
Mon 04:15:58 PM 39.0381 -102.8542 252° West 227 261 20,000  Level Denver Center
Mon 04:17:01 PM 39.0167 -102.9325 251° West 231 266 20,000  Level Denver Center
Mon 04:18:03 PM 38.9919 -103.0244 251° West 228 262 20,000  Level Denver Center
Mon 04:19:05 PM 38.9714 -103.1017 251° West 228 262 20,000  Level Denver Center
Mon 04:20:07 PM 38.9506 -103.1792 251° West 230 265 20,000  Level Denver Center
Mon 04:21:09 PM 38.9292 -103.2564 250° West 229 264 20,000  Level Denver Center
Mon 04:22:11 PM 38.9089 -103.3328 251° West 228 262 20,000  Level Denver Center
Mon 04:23:13 PM 38.8881 -103.4103 251° West 230 265 20,000  Level Denver Center
Mon 04:24:15 PM 38.8625 -103.5022 250° West 230 265 20,000  Level Denver Center
Mon 04:25:17 PM 38.8428 -103.5769 251° West 229 264 20,000  Level Denver Center
Mon 04:26:31 PM 38.8186 -103.6639 250° West 233 268 20,000 44 Level Denver Center
Mon 04:27:34 PM 38.7953 -103.7517 251° West 233 268 20,100 96 Climbing Denver Center
Mon 04:28:36 PM 38.7708 -103.8364 250° West 230 265 20,200 48 Climbing Denver Center
Mon 04:29:38 PM 38.7514 -103.9094 251° West 228 262 20,200  Level Denver Center
Mon 04:30:40 PM 38.7272 -103.9967 250° West 232 267 20,200 194 Level Denver Center
Mon 04:31:42 PM 38.7067 -104.0692 250° West 229 264 20,600 387 Climbing Denver Center
Mon 04:32:44 PM 38.6836 -104.1489 250° West 219 252 21,000 290 Climbing Denver Center
Mon 04:33:46 PM 38.6642 -104.2183 250° West 217 250 21,200 242 Climbing Denver Center
Mon 04:34:48 PM 38.6419 -104.3003 251° West 218 251 21,500 293 Climbing Denver Center
Mon 04:35:49 PM 38.6244 -104.3583 249° West 219 252 21,800 221 Climbing Denver Center
Mon 04:37:04 PM 38.5986 -104.4497 250° West 216 249 22,000 87 Climbing Denver Center
Mon 04:38:07 PM 38.5753 -104.5339 250° West 221 254 22,000  Level Denver Center
Mon 04:39:09 PM 38.5514 -104.6200 250° West 228 262 22,000  Level Denver Center
Mon 04:40:11 PM 38.5306 -104.6942 250° West 231 266 22,000  Level Denver Center
Mon 04:41:13 PM 38.5050 -104.7806 249° West 232 267 22,000  Level Denver Center
Mon 04:42:15 PM 38.4839 -104.8533 250° West 230 265 22,000  Level Denver Center
Mon 04:43:29 PM 38.4561 -104.9514 250° West 231 266 22,000  Level Denver Center
Mon 04:44:31 PM 38.4314 -105.0364 250° West 229 264 22,000 97 Level Denver Center
Mon 04:45:33 PM 38.4106 -105.1094 250° West 229 264 22,200 290 Climbing Denver Center
Mon 04:46:35 PM 38.3939 -105.1661 249° West 223 257 22,600 387 Climbing Denver Center
Mon 04:47:37 PM 38.3672 -105.2517 248° West 207 238 23,000 339 Climbing Denver Center
Mon 04:48:39 PM 38.3483 -105.3181 250° West 208 239 23,300 290 Climbing Denver Center
Mon 04:49:41 PM 38.3208 -105.3931 245° Southwest 210 242 23,600 290 Climbing Denver Center
Mon 04:50:43 PM 38.2942 -105.4556 241° Southwest 209 241 23,900 192 Climbing Denver Center
Mon 04:51:46 PM 38.2622 -105.5300 241° Southwest 214 246 24,000 48 Climbing Denver Center
Mon 04:52:48 PM 38.2372 -105.5978 245° Southwest 221 254 24,000  Level Denver Center
Mon 04:53:50 PM 38.2108 -105.6797 248° West 224 258 24,000  Level Denver Center
Mon 04:54:51 PM 38.1917 -105.7383 247° West 226 260 24,000  Level Denver Center
Mon 04:55:54 PM 38.1522 -105.8292 241° Southwest 230 265 24,000  Level Denver Center
Mon 04:56:56 PM 38.1225 -105.8972 241° Southwest 231 266 24,000 97 Level Denver Center
Mon 04:57:58 PM 38.0881 -105.9778 242° Southwest 232 267 24,200 387 Climbing Denver Center
Mon 04:59:00 PM 38.0603 -106.0417 241° Southwest 220 253 24,800 435 Climbing Denver Center
Mon 05:00:02 PM 38.0322 -106.1122 243° Southwest 207 238 25,100 290 Climbing Denver Center
Mon 05:01:04 PM 38.0050 -106.1747 241° Southwest 210 242 25,400 290 Climbing Denver Center
Mon 05:02:06 PM 37.9794 -106.2508 247° West 211 243 25,700 290 Climbing Denver Center
Mon 05:03:08 PM 37.9589 -106.3161 248° West 209 241 26,000 145 Climbing Denver Center
Mon 05:04:10 PM 37.9386 -106.3936 252° West 207 238 26,000  Level Denver Center
Mon 05:05:12 PM 37.9169 -106.4633 249° West 217 250 26,000 44 Level Denver Center
Mon 05:06:26 PM 37.8919 -106.5422 248° West 221 254 26,100  Climbing Denver Center
Mon 05:07:29 PM 37.8683 -106.6267 251° West 226 260 26,000 -48 Descending Denver Center
Mon 05:08:31 PM 37.8433 -106.7128 250° West 232 267 26,000  Level Denver Center
Mon 05:09:33 PM 37.8222 -106.7842 249° West 229 264 26,000  Level Denver Center
Mon 05:10:35 PM 37.7975 -106.8681 250° West 227 261 26,000  Level Denver Center
Mon 05:11:37 PM 37.7767 -106.9375 249° West 223 257 26,000  Level Denver Center
Mon 05:12:39 PM 37.7517 -107.0189 249° West 223 257 26,000  Level Denver Center
Mon 05:13:41 PM 37.7308 -107.0892 249° West 224 258 26,000  Level Denver Center
Mon 05:14:43 PM 37.7058 -107.1722 249° West 228 262 26,000  Level Denver Center
Mon 05:15:45 PM 37.6825 -107.2444 248° West 231 266 26,000  Level Denver Center
Mon 05:16:47 PM 37.6569 -107.3261 248° West 226 260 26,000  Level Denver Center
Mon 05:17:49 PM 37.6419 -107.3994 256° West 226 260 26,000  Level Denver Center
Mon 05:18:51 PM 37.6228 -107.4853 254° West 227 261 26,000  Level Denver Center
Mon 05:19:53 PM 37.6011 -107.5558 249° West 226 260 26,000  Level Denver Center
Mon 05:20:56 PM 37.5764 -107.6403 250° West 229 264 26,000  Level Denver Center
Mon 05:21:58 PM 37.5533 -107.7117 248° West 230 265 26,000  Level Denver Center
Mon 05:23:00 PM 37.5389 -107.8006 258° West 230 265 26,000  Level Denver Center
Mon 05:24:02 PM 37.5139 -107.8667 245° Southwest 226 260 26,000  Level Denver Center
Mon 05:25:04 PM 37.4878 -107.9497 248° West 227 261 26,000  Level Denver Center
Mon 05:26:06 PM 37.4644 -108.0194 247° West 226 260 26,000  Level Denver Center
Mon 05:27:08 PM 37.4411 -108.0908 248° West 228 262 26,000  Level Denver Center
Mon 05:28:10 PM 37.4142 -108.1708 247° West 226 260 26,000  Level Denver Center
Mon 05:29:12 PM 37.3928 -108.2403 249° West 224 258 26,000  Level Denver Center
Mon 05:30:14 PM 37.3672 -108.3197 248° West 221 254 26,000  Level Denver Center
Mon 05:31:16 PM 37.3458 -108.3886 249° West 220 253 26,000  Level Denver Center
Mon 05:32:18 PM 37.3225 -108.4714 251° West 224 258 26,000  Level Denver Center
Mon 05:33:20 PM 37.3008 -108.5394 248° West 221 254 26,000  Level Denver Center
Mon 05:34:22 PM 37.2767 -108.6175 249° West 217 250 26,000  Level Denver Center
Mon 05:35:24 PM 37.2558 -108.6869 249° West 219 252 26,000  Level Denver Center
Mon 05:36:26 PM 37.2319 -108.7708 250° West 225 259 26,000  Level Denver Center
Mon 05:37:28 PM 37.2133 -108.8397 251° West 221 254 26,000  Level Denver Center
Mon 05:38:30 PM 37.1894 -108.9200 250° West 220 253 26,000  Level Denver Center
Mon 05:39:32 PM 37.1706 -108.9897 251° West 221 254 26,000  Level Denver Center
Mon 05:40:34 PM 37.1475 -109.0697 250° West 221 254 26,000  Level Denver Center
Mon 05:41:37 PM 37.1275 -109.1375 250° West 218 251 26,000  Level Denver Center
Mon 05:42:38 PM 37.1119 -109.1939 251° West 215 247 26,000  Level Denver Center
Mon 05:43:41 PM 37.0853 -109.2861 250° West 219 252 26,000  Level Denver Center
Mon 05:44:43 PM 37.0636 -109.3647 251° West 217 250 26,000  Level Denver Center
Mon 05:45:57 PM 37.0442 -109.4336 251° West 217 250 26,000  Level Denver Center
Mon 05:46:59 PM 37.0189 -109.5261 251° West 220 253 26,000  Level Denver Center
Mon 05:48:01 PM 37.0022 -109.5833 250° West 219 252 26,000  Level Denver Center
Mon 05:49:03 PM 36.9778 -109.6756 252° West 219 252 26,000  Level Denver Center
Mon 05:50:05 PM 36.9597 -109.7419 251° West 214 246 26,000  Level Denver Center
Mon 05:51:07 PM 36.9383 -109.8206 251° West 213 245 26,000  Level Denver Center
Mon 05:52:09 PM 36.9183 -109.8872 249° West 214 246 26,000  Level Denver Center
Mon 05:53:11 PM 36.8953 -109.9689 251° West 220 253 26,000  Level Denver Center
Mon 05:54:13 PM 36.8778 -110.0372 252° West 219 252 26,000  Level Denver Center
Mon 05:55:15 PM 36.8528 -110.1197 249° West 223 257 26,000  Level Denver Center
Mon 05:56:17 PM 36.8294 -110.1961 249° West 230 265 26,000 48 Level Denver Center
Mon 05:57:19 PM 36.8078 -110.2700 250° West 228 262 26,100  Climbing Denver Center
Mon 05:58:33 PM 36.7875 -110.3431 251° West 224 258 26,000 -44 Descending Denver Center
Mon 05:59:36 PM 36.7625 -110.4311 251° West 223 257 26,000  Level Denver Center
Mon 06:00:38 PM 36.7417 -110.5039 250° West 222 255 26,000  Level Denver Center
Mon 06:01:40 PM 36.7214 -110.5769 251° West 224 258 26,000  Level Denver Center
Mon 06:02:42 PM 36.6969 -110.6644 251° West 224 258 26,000  Level Denver Center
Mon 06:03:44 PM 36.6786 -110.7367 252° West 221 254 26,000  Level Denver Center
Mon 06:04:46 PM 36.6636 -110.7942 252° West 219 252 26,000 48 Level Denver Center
Mon 06:05:48 PM 36.6442 -110.8692 252° West 224 258 26,100  Climbing Denver Center
Mon 06:06:50 PM 36.6214 -110.9572 252° West 223 257 26,000 -48 Descending Denver Center
Mon 06:07:52 PM 36.6017 -111.0294 251° West 222 255 26,000  Level Denver Center
Mon 06:08:54 PM 36.5781 -111.1167 251° West 221 254 26,000  Level Denver Center
Mon 06:09:56 PM 36.5575 -111.1900 251° West 223 257 26,000  Level Denver Center
Mon 06:10:58 PM 36.5364 -111.2656 251° West 229 264 26,000  Level Denver Center
Mon 06:12:00 PM 36.5133 -111.3378 248° West 225 259 26,000  Level Denver Center
Mon 06:13:02 PM 36.4939 -111.4114 252° West 224 258 26,000  Level Denver Center
Mon 06:14:04 PM 36.4731 -111.4864 251° West 228 262 26,000  Level Denver Center
Mon 06:15:06 PM 36.4500 -111.5761 252° West 229 264 26,000  Level Denver Center
Mon 06:16:11 PM 36.4297 -111.6525 252° West 232 267 26,000 47 Level Los Angeles Center
Mon 06:17:13 PM 36.4086 -111.7272 251° West 229 264 26,100  Climbing Los Angeles Center
Mon 06:18:15 PM 36.3878 -111.8022 251° West 230 265 26,000  Descending Los Angeles Center
Mon 06:19:17 PM 36.3597 -111.8731 244° Southwest 229 264 26,100 48 Climbing Los Angeles Center
Mon 06:20:19 PM 36.3375 -111.9653 253° West 233 268 26,100  Level Los Angeles Center
Mon 06:21:22 PM 36.3147 -112.0386 249° West 230 265 26,100  Level Los Angeles Center
Mon 06:22:24 PM 36.2897 -112.1128 247° West 231 266 26,100  Level Los Angeles Center
Mon 06:23:25 PM 36.2711 -112.1703 248° West 229 264 26,100 -49 Level Los Angeles Center
Mon 06:24:27 PM 36.2492 -112.2417 249° West 224 258 26,000  Descending Los Angeles Center
Mon 06:25:30 PM 36.2200 -112.3311 248° West 231 266 26,100  Climbing Los Angeles Center
Mon 06:26:32 PM 36.1914 -112.4192 248° West 230 265 26,000  Descending Los Angeles Center
Mon 06:27:34 PM 36.1675 -112.4903 247° West 226 260 26,100  Climbing Los Angeles Center
Mon 06:28:36 PM 36.1447 -112.5636 249° West 227 261 26,000 -48 Descending Los Angeles Center
Mon 06:29:38 PM 36.1206 -112.6364 248° West 228 262 26,000 48 Level Los Angeles Center
Mon 06:30:41 PM 36.0981 -112.7069 248° West 223 257 26,100 48 Climbing Los Angeles Center
Mon 06:31:43 PM 36.0756 -112.7772 248° West 221 254 26,100  Level Los Angeles Center
Mon 06:32:45 PM 36.0464 -112.8617 247° West 223 257 26,100  Level Los Angeles Center
Mon 06:33:47 PM 36.0225 -112.9333 248° West 226 260 26,100 -48 Level Los Angeles Center
Mon 06:34:49 PM 36.0006 -113.0053 249° West 225 259 26,000 -48 Descending Los Angeles Center
Mon 06:35:51 PM 35.9750 -113.0786 247° West 230 265 26,000  Level Los Angeles Center
Mon 06:36:53 PM 35.9536 -113.1494 250° West 230 265 26,000 48 Level Los Angeles Center
Mon 06:37:55 PM 35.9250 -113.2369 248° West 232 267 26,100 48 Climbing Los Angeles Center
Mon 06:38:57 PM 35.9006 -113.3064 247° West 226 260 26,100 -48 Level Los Angeles Center
Mon 06:39:59 PM 35.8775 -113.3789 249° West 229 264 26,000  Descending Los Angeles Center
Mon 06:41:02 PM 35.8519 -113.4475 245° Southwest 224 258 26,100 48 Climbing Los Angeles Center
Mon 06:42:04 PM 35.8217 -113.5153 241° Southwest 226 260 26,100  Level Los Angeles Center
Mon 06:43:06 PM 35.7825 -113.5936 238° Southwest 226 260 26,100 -48 Level Los Angeles Center
Mon 06:44:08 PM 35.7503 -113.6569 238° Southwest 221 254 26,000  Descending Los Angeles Center
Mon 06:45:10 PM 35.7167 -113.7228 238° Southwest 224 258 26,100  Climbing Los Angeles Center
Mon 06:46:12 PM 35.6858 -113.7867 239° Southwest 225 259 26,000 -48 Descending Los Angeles Center
Mon 06:47:14 PM 35.6533 -113.8514 238° Southwest 225 259 26,000  Level Los Angeles Center
Mon 06:48:16 PM 35.6239 -113.9386 247° West 241 277 26,000  Level Los Angeles Center
Mon 06:49:18 PM 35.6014 -114.0136 250° West 238 274 26,000  Level Los Angeles Center
Mon 06:50:21 PM 35.5758 -114.0875 247° West 237 273 26,000  Level Los Angeles Center
Mon 06:51:23 PM 35.5531 -114.1606 249° West 232 267 26,000 48 Level Los Angeles Center
Mon 06:52:25 PM 35.5264 -114.2467 249° West 227 261 26,100 48 Climbing Los Angeles Center
Mon 06:53:27 PM 35.5039 -114.3111 247° West 229 264 26,100  Level Los Angeles Center
Mon 06:54:29 PM 35.4767 -114.3992 249° West 230 265 26,100 -48 Level Los Angeles Center
Mon 06:55:31 PM 35.4539 -114.4733 249° West 231 266 26,000  Descending Los Angeles Center
Mon 06:56:33 PM 35.4317 -114.5456 249° West 227 261 26,100  Climbing Los Angeles Center
Mon 06:57:35 PM 35.4069 -114.6206 248° West 236 272 26,000  Descending Los Angeles Center
Mon 06:58:37 PM 35.3839 -114.6922 248° West 230 265 26,100  Climbing Los Angeles Center
Mon 06:59:39 PM 35.3592 -114.7658 248° West 232 267 26,000 -48 Descending Los Angeles Center
Mon 07:00:41 PM 35.3300 -114.8542 248° West 233 268 26,000 44 Level Los Angeles Center
Mon 07:01:56 PM 35.3031 -114.9411 249° West 229 264 26,100 44 Climbing Los Angeles Center
Mon 07:02:58 PM 35.2847 -115.0008 249° West 231 266 26,100 -48 Level Los Angeles Center
Mon 07:04:00 PM 35.2550 -115.0872 247° West 230 265 26,000 -194 Descending Los Angeles Center
Mon 07:05:02 PM 35.2322 -115.1622 250° West 233 268 25,700 -484 Descending Los Angeles Center
Mon 07:06:04 PM 35.2064 -115.2392 248° West 240 276 25,000 -677 Descending Los Angeles Center
Mon 07:07:06 PM 35.1836 -115.3103 249° West 252 290 24,300 -823 Descending Los Angeles Center
Mon 07:08:08 PM 35.1531 -115.4028 248° West 248 285 23,300 -919 Descending Los Angeles Center
Mon 07:09:10 PM 35.1281 -115.4803 248° West 246 283 22,400 -823 Descending Los Angeles Center
Mon 07:10:12 PM 35.1031 -115.5561 248° West 243 280 21,600 -774 Descending Los Angeles Center
Mon 07:11:14 PM 35.0722 -115.6475 248° West 242 278 20,800 -726 Descending Los Angeles Center
Mon 07:12:16 PM 35.0475 -115.7242 249° West 243 280 20,100 -387 Descending Los Angeles Center
Mon 07:13:18 PM 35.0222 -115.7967 247° West 237 273 20,000 -288 Descending Los Angeles Center
Mon 07:14:21 PM 34.9983 -115.8711 249° West 235 270 19,500 -816 Descending Los Angeles Center
Mon 07:15:23 PM 34.9714 -115.9503 247° West 247 284 18,300 -1,113 Descending Los Angeles Center
Mon 07:16:25 PM 34.9447 -116.0331 249° West 257 296 17,200 -1,016 Descending Los Angeles Center
Mon 07:17:27 PM 34.9106 -116.1278 246° West 257 296 16,200 -581 Descending Los Angeles Center
Mon 07:18:29 PM 34.8844 -116.2058 248° West 254 292 16,000 -97 Descending Los Angeles Center
Mon 07:19:31 PM 34.8592 -116.2875 249° West 239 275 16,000  Level Los Angeles Center
Mon 07:20:33 PM 34.8361 -116.3519 246° West 236 272 16,000  Level Los Angeles Center
Mon 07:21:35 PM 34.8106 -116.4256 247° West 235 270 16,000 44 Level Los Angeles Center
Mon 07:22:49 PM 34.7831 -116.4958 245° Southwest 233 268 16,100 44 Climbing Los Angeles Center
Mon 07:23:51 PM 34.7228 -116.5744 227° Southwest 228 262 16,100 -48 Level Los Angeles Center
Mon 07:24:53 PM 34.6858 -116.6306 231° Southwest 215 247 16,000 -48 Descending Los Angeles Center
Mon 07:25:55 PM 34.6544 -116.6736 228° Southwest 212 244 16,000  Level Los Angeles Center
Mon 07:26:57 PM 34.6017 -116.7417 227° Southwest 228 262 16,000 -194 Level Los Angeles Center
Mon 07:27:59 PM 34.5494 -116.7997 222° Southwest 233 268 15,600 -581 Descending Los Angeles Center
Mon 07:29:01 PM 34.5008 -116.8528 222° Southwest 251 289 14,800 -774 Descending Los Angeles Center
Mon 07:30:03 PM 34.4383 -116.9228 223° Southwest 255 293 14,000 -726 Descending Los Angeles Center
Mon 07:31:05 PM 34.3886 -116.9797 223° Southwest 248 285 13,300 -774 Descending Los Angeles Center
Mon 07:32:07 PM 34.3394 -117.0356 223° Southwest 243 280 12,400 -968 Descending Los Angeles Center
Mon 07:33:09 PM 34.2919 -117.0875 222° Southwest 233 268 11,300 -1,113 Descending Los Angeles Center
Mon 07:34:11 PM 34.2431 -117.1361 219° Southwest 228 262 10,100 -1,016 Descending Los Angeles Center
Mon 07:35:13 PM 34.1972 -117.1969 228° Southwest 211 243 9,200 -1,016 Descending Los Angeles Center
Mon 07:36:15 PM 34.1556 -117.2458 224° Southwest 209 241 8,000 -1,145 Descending Los Angeles Center
Mon 07:37:03 PM 34.1167 -117.2833 219° Southwest 201 231 7,100 -1,222 Descending Southern California TRACON
Mon 07:38:03 PM 34.0833 -117.3333 231° Southwest 212 244 5,800 -1,450 Descending Southern California TRACON
Mon 07:39:03 PM 34.0333 -117.3667 209° Southwest 174 200 4,200 -1,789 Descending Southern California TRACON
Mon 07:39:57 PM 34.0000 -117.3833 203° Southwest 171 197 2,400 -1,350 Descending Southern California TRACON
Mon 07:41:03 PM 33.9500 -117.4000 195° South 150 173 1,500 -818 Descending Southern California TRACON
Mon 07:43:00 PM 33.9500 -117.4333 220° Southwest  Level FlightAware Approximate
Mon 07:50:00 PM 33.9519 -117.4451 220° Southwest  Level Estimated

Login

Don't have an account? Register now (free) for customized features, flight alerts, and more!